Time;durP1;ratioP1;P1;durP2;ratioP2;P2;SDS_P1;SDS_P2;PMS_P1;PMS_P2;Temp;Humidity;BMP_temperature;BMP_pressure;BME280_temperature;BME280_humidity;BME280_pressure;Samples;Min_cycle;Max_cycle;Signal;HPM_P1;HPM_P2
2023/01/06 00:00:38;;;;;;;3.33;1.10;;;6.20;99.90;;;;;;5011698;28;20635;-73
2023/01/06 00:03:04;;;;;;;4.60;1.90;;;6.30;99.90;;;;;;4987096;28;20186;-73
2023/01/06 00:05:30;;;;;;;3.93;1.20;;;6.20;99.90;;;;;;4985204;28;20209;-73
2023/01/06 00:07:56;;;;;;;4.27;1.50;;;6.20;99.90;;;;;;4989258;28;20719;-74
2023/01/06 00:10:22;;;;;;;2.43;1.17;;;6.20;99.90;;;;;;4989923;28;20201;-72
2023/01/06 00:12:48;;;;;;;8.17;1.73;;;6.20;99.90;;;;;;4988094;28;20212;-72
2023/01/06 00:15:16;;;;;;;3.30;1.40;;;6.20;99.90;;;;;;4989417;28;20170;-72
2023/01/06 00:17:42;;;;;;;4.53;1.30;;;6.30;99.90;;;;;;4985987;28;20174;-74
2023/01/06 00:20:08;;;;;;;5.80;1.93;;;6.30;99.90;;;;;;4986457;28;20221;-75
2023/01/06 00:22:33;;;;;;;5.97;1.70;;;6.30;99.90;;;;;;4989025;28;20217;-72
2023/01/06 00:24:59;;;;;;;4.93;1.60;;;6.30;99.90;;;;;;4998991;28;20211;-71
2023/01/06 00:27:25;;;;;;;4.60;1.60;;;6.30;99.90;;;;;;4991483;28;20178;-73
2023/01/06 00:29:50;;;;;;;6.93;1.50;;;6.30;99.90;;;;;;4986307;28;20244;-73
2023/01/06 00:32:17;;;;;;;6.77;1.73;;;6.20;99.90;;;;;;4984247;28;20317;-76
2023/01/06 00:34:43;;;;;;;4.50;1.20;;;6.30;99.90;;;;;;4990379;28;20209;-73
2023/01/06 00:37:08;;;;;;;5.90;1.20;;;6.20;99.90;;;;;;4986209;28;20237;-75
2023/01/06 00:39:34;;;;;;;2.17;1.37;;;6.10;99.90;;;;;;4984948;28;20899;-73
2023/01/06 00:42:02;;;;;;;5.20;1.80;;;6.10;99.90;;;;;;4990678;28;20206;-73
2023/01/06 00:44:29;;;;;;;5.07;2.10;;;6.10;99.90;;;;;;4989903;28;20271;-73
2023/01/06 00:46:55;;;;;;;7.83;1.77;;;6.20;99.90;;;;;;4984979;28;20236;-73
2023/01/06 00:49:20;;;;;;;8.13;2.00;;;6.20;99.90;;;;;;4987585;28;20239;-73
2023/01/06 00:51:47;;;;;;;4.10;1.90;;;6.10;99.90;;;;;;4982277;28;20214;-74
2023/01/06 00:54:14;;;;;;;3.73;1.73;;;6.00;99.90;;;;;;5005952;28;20620;-73
2023/01/06 00:56:42;;;;;;;5.60;1.87;;;6.10;99.90;;;;;;4987889;28;20213;-73
2023/01/06 00:59:09;;;;;;;4.63;2.03;;;6.20;99.90;;;;;;4987409;28;20713;-71
2023/01/06 01:01:35;;;;;;;5.70;2.03;;;6.10;99.90;;;;;;4985594;28;20222;-73
2023/01/06 01:04:02;;;;;;;3.70;1.80;;;6.10;99.90;;;;;;4986736;28;20712;-73
2023/01/06 01:06:27;;;;;;;5.87;2.10;;;6.10;99.90;;;;;;4985022;28;20182;-74
2023/01/06 01:08:57;;;;;;;6.70;1.70;;;6.10;99.90;;;;;;4988406;28;20182;-71
2023/01/06 01:14:10;;;;;;;9.40;2.30;;;6.10;99.90;;;;;;4986165;28;20752;-73
2023/01/06 01:16:35;;;;;;;4.60;2.10;;;6.10;99.90;;;;;;4987998;28;20210;-73
2023/01/06 01:19:02;;;;;;;5.33;1.90;;;6.10;99.90;;;;;;4982745;28;20283;-72
2023/01/06 01:21:27;;;;;;;9.30;1.90;;;6.00;99.90;;;;;;4990706;28;20218;-74
2023/01/06 01:23:53;;;;;;;6.27;1.70;;;6.00;99.90;;;;;;4988311;28;20173;-72
2023/01/06 01:26:19;;;;;;;2.83;1.67;;;6.00;99.90;;;;;;5004116;28;20732;-73
2023/01/06 01:28:44;;;;;;;5.77;1.93;;;6.00;99.90;;;;;;4989890;28;20240;-72
2023/01/06 01:31:11;;;;;;;3.97;1.83;;;6.00;99.90;;;;;;4985596;28;20242;-73
2023/01/06 01:33:37;;;;;;;4.30;1.70;;;6.00;99.90;;;;;;4983197;28;20210;-73
2023/01/06 01:36:09;;;;;;;9.20;2.27;;;5.90;99.90;;;;;;4988196;28;20172;-73
2023/01/06 01:38:35;;;;;;;4.30;1.70;;;5.80;99.90;;;;;;4984480;28;20213;-74
2023/01/06 01:41:01;;;;;;;6.53;2.00;;;5.90;99.90;;;;;;4983820;28;20237;-73
2023/01/06 01:44:22;;;;;;;11.00;2.23;;;5.90;99.90;;;;;;4989469;28;20205;-73
2023/01/06 01:46:48;;;;;;;5.63;1.93;;;5.90;99.90;;;;;;4962794;28;20230;-73
2023/01/06 01:49:19;;;;;;;5.73;2.10;;;6.00;99.90;;;;;;4983538;28;20236;-71
2023/01/06 01:51:46;;;;;;;6.07;1.97;;;6.00;99.90;;;;;;4998984;28;20209;-72
2023/01/06 01:54:16;;;;;;;6.50;1.40;;;6.00;99.90;;;;;;4986008;28;20650;-72
2023/01/06 01:56:46;;;;;;;5.20;1.80;;;6.00;99.90;;;;;;5000752;28;20264;-74
2023/01/06 01:59:16;;;;;;;5.27;1.70;;;5.90;99.90;;;;;;4985059;28;20210;-72
2023/01/06 02:01:42;;;;;;;2.73;1.10;;;6.00;99.90;;;;;;4985899;28;20225;-73
2023/01/06 02:04:08;;;;;;;6.13;1.53;;;6.00;99.90;;;;;;4985378;28;20301;-72
2023/01/06 02:06:34;;;;;;;2.97;1.40;;;6.00;99.90;;;;;;4982725;28;20218;-72
2023/01/06 02:09:16;;;;;;;4.47;1.50;;;6.00;99.90;;;;;;4986933;28;20193;-72
2023/01/06 02:11:42;;;;;;;4.70;1.50;;;6.00;99.90;;;;;;4986336;28;20216;-71
2023/01/06 02:14:12;;;;;;;4.27;1.50;;;6.00;99.90;;;;;;4986711;28;20297;-72
2023/01/06 02:16:50;;;;;;;5.37;1.47;;;5.90;99.90;;;;;;4986484;28;20209;-73
2023/01/06 02:19:19;;;;;;;3.70;1.23;;;5.90;99.90;;;;;;4983429;28;20209;-71
2023/01/06 02:21:58;;;;;;;3.27;1.43;;;5.90;99.90;;;;;;4986262;28;20221;-73
2023/01/06 02:24:37;;;;;;;3.13;1.50;;;5.90;99.90;;;;;;4982233;28;20194;-73
2023/01/06 02:27:25;;;;;;;2.53;1.07;;;5.90;99.90;;;;;;4982092;28;20189;-73
2023/01/06 02:30:02;;;;;;;3.80;1.30;;;5.90;99.90;;;;;;4984848;28;20584;-72
2023/01/06 02:33:09;;;;;;;3.23;1.50;;;5.90;99.90;;;;;;4984451;28;20221;-72
2023/01/06 02:35:46;;;;;;;3.53;1.23;;;5.90;99.90;;;;;;4982502;28;20238;-74
2023/01/06 02:38:41;;;;;;;3.97;1.40;;;5.80;99.90;;;;;;4983371;28;20228;-73
2023/01/06 02:41:09;;;;;;;6.50;1.37;;;5.80;99.90;;;;;;4944409;28;20241;-74
2023/01/06 02:44:00;;;;;;;6.20;1.27;;;5.70;99.90;;;;;;5008437;28;20202;-73
2023/01/06 02:46:48;;;;;;;5.80;1.43;;;5.70;99.90;;;;;;4983706;28;20680;-72
2023/01/06 02:49:33;;;;;;;1.97;1.20;;;5.80;99.90;;;;;;4987690;28;20276;-71
2023/01/06 02:52:07;;;;;;;2.90;1.60;;;5.80;99.90;;;;;;4985721;28;20210;-72
2023/01/06 02:54:43;;;;;;;3.53;1.30;;;5.80;99.90;;;;;;4982023;28;20215;-73
2023/01/06 02:57:36;;;;;;;1.93;1.30;;;5.80;99.90;;;;;;4984918;28;20672;-72
2023/01/06 03:00:17;;;;;;;2.53;1.20;;;5.80;99.90;;;;;;4979752;28;20282;-71
2023/01/06 03:02:47;;;;;;;5.43;1.40;;;5.80;99.90;;;;;;4986011;28;20213;-74
2023/01/06 03:05:16;;;;;;;3.53;1.27;;;5.80;99.90;;;;;;4987066;28;20224;-74
2023/01/06 03:07:44;;;;;;;3.57;1.03;;;5.80;99.90;;;;;;4986747;28;20216;-73
2023/01/06 03:10:13;;;;;;;5.33;1.80;;;5.80;99.90;;;;;;4986064;28;20603;-73
2023/01/06 03:12:51;;;;;;;5.93;1.60;;;5.80;99.90;;;;;;4987574;28;20730;-74
2023/01/06 03:15:17;;;;;;;3.43;1.27;;;5.70;99.90;;;;;;4989894;28;20185;-73
2023/01/06 03:17:43;;;;;;;2.20;1.40;;;5.80;99.90;;;;;;4990329;28;20177;-73
2023/01/06 03:20:11;;;;;;;2.93;1.33;;;5.80;99.90;;;;;;4985695;28;20224;-73
2023/01/06 03:22:37;;;;;;;4.40;1.40;;;5.80;99.90;;;;;;4988717;28;20205;-72
2023/01/06 03:25:05;;;;;;;3.73;0.87;;;5.80;99.90;;;;;;5002988;28;20711;-71
2023/01/06 03:27:31;;;;;;;3.93;1.30;;;5.70;99.90;;;;;;4991805;28;20213;-72
2023/01/06 03:29:57;;;;;;;3.57;1.07;;;5.80;99.90;;;;;;4988801;28;20205;-72
2023/01/06 03:32:45;;;;;;;5.03;1.13;;;5.80;99.90;;;;;;4988178;28;20210;-73
2023/01/06 03:35:32;;;;;;;4.03;1.20;;;5.70;99.90;;;;;;4996691;28;20206;-72
2023/01/06 03:38:26;;;;;;;2.10;1.10;;;5.70;99.90;;;;;;4983310;28;20288;-72
2023/01/06 03:41:19;;;;;;;5.23;1.10;;;5.60;99.90;;;;;;4984218;28;20301;-71
2023/01/06 03:44:11;;;;;;;5.60;1.07;;;5.70;99.90;;;;;;5001502;28;20212;-71
2023/01/06 03:46:47;;;;;;;3.20;1.10;;;5.80;99.90;;;;;;4984684;28;20696;-71
2023/01/06 03:49:27;;;;;;;4.63;1.17;;;5.70;99.90;;;;;;4978384;28;20295;-73
2023/01/06 03:52:12;;;;;;;6.23;1.40;;;5.60;99.90;;;;;;4983670;28;20214;-70
2023/01/06 03:54:42;;;;;;;4.47;1.10;;;5.70;99.90;;;;;;4986185;28;20708;-74
2023/01/06 03:57:13;;;;;;;3.27;1.20;;;5.70;99.90;;;;;;4982441;28;20174;-71
2023/01/06 03:59:50;;;;;;;4.43;1.20;;;5.70;99.90;;;;;;4985659;28;20222;-72
2023/01/06 04:02:19;;;;;;;4.70;1.30;;;5.60;99.90;;;;;;4982454;28;20242;-72
2023/01/06 04:05:19;;;;;;;4.70;1.13;;;5.60;99.90;;;;;;4983682;28;20594;-72
2023/01/06 04:07:45;;;;;;;5.40;1.40;;;5.60;99.90;;;;;;4983066;28;20634;-73
2023/01/06 04:10:13;;;;;;;4.00;1.13;;;5.70;99.90;;;;;;4980754;28;20226;-72
2023/01/06 04:12:39;;;;;;;4.17;1.40;;;5.60;99.90;;;;;;4983632;28;20210;-73
2023/01/06 04:15:05;;;;;;;4.00;1.40;;;5.60;99.90;;;;;;4982115;28;20202;-72
2023/01/06 04:17:30;;;;;;;5.37;1.33;;;5.70;99.90;;;;;;4979629;28;20228;-71
2023/01/06 04:19:56;;;;;;;4.57;1.50;;;5.60;99.90;;;;;;4979661;28;20218;-72
2023/01/06 04:22:21;;;;;;;4.30;1.40;;;5.70;99.90;;;;;;4982468;28;20210;-73
2023/01/06 04:24:47;;;;;;;5.60;1.63;;;5.70;99.90;;;;;;4983090;28;20224;-72
2023/01/06 04:27:13;;;;;;;4.70;1.70;;;5.70;99.90;;;;;;4981319;28;20174;-72
2023/01/06 04:29:38;;;;;;;8.50;1.63;;;5.70;99.90;;;;;;4981536;28;20202;-72
2023/01/06 04:32:04;;;;;;;3.10;1.30;;;5.70;99.90;;;;;;4984306;28;20248;-75
2023/01/06 04:34:29;;;;;;;3.77;1.50;;;5.70;99.90;;;;;;4984508;28;20766;-74
2023/01/06 04:36:55;;;;;;;3.63;1.93;;;5.70;99.90;;;;;;4981115;28;20216;-71
2023/01/06 04:39:21;;;;;;;7.50;1.77;;;5.70;99.90;;;;;;4982760;28;20181;-72
2023/01/06 04:41:47;;;;;;;6.57;1.67;;;5.70;99.90;;;;;;4982114;28;20232;-74
2023/01/06 04:44:12;;;;;;;4.83;1.50;;;5.70;99.90;;;;;;4981408;28;20697;-72
2023/01/06 04:46:38;;;;;;;6.33;1.60;;;5.70;99.90;;;;;;4982907;28;20260;-72
2023/01/06 04:49:03;;;;;;;8.53;1.60;;;5.70;99.90;;;;;;4981133;28;20213;-73
2023/01/06 04:51:29;;;;;;;5.40;1.10;;;5.70;99.90;;;;;;4982641;28;20652;-72
2023/01/06 04:53:55;;;;;;;4.07;1.37;;;5.70;99.90;;;;;;4983585;28;20301;-73
2023/01/06 04:56:21;;;;;;;5.53;1.70;;;5.60;99.90;;;;;;4981197;28;20281;-71
2023/01/06 04:58:46;;;;;;;5.20;1.73;;;5.60;99.90;;;;;;4983351;28;20586;-72
2023/01/06 05:01:13;;;;;;;4.80;1.83;;;5.60;99.90;;;;;;4996610;28;20233;-75
2023/01/06 05:03:39;;;;;;;4.10;1.37;;;5.70;99.90;;;;;;4985185;28;20746;-73
2023/01/06 05:06:10;;;;;;;3.00;1.30;;;5.70;99.90;;;;;;4981449;28;20602;-72
2023/01/06 05:08:36;;;;;;;5.83;1.63;;;5.60;99.90;;;;;;4982911;28;20739;-72
2023/01/06 05:11:06;;;;;;;5.60;1.67;;;5.70;99.90;;;;;;4979732;28;20246;-71
2023/01/06 05:13:32;;;;;;;4.73;1.77;;;5.70;99.90;;;;;;4983961;28;20237;-73
2023/01/06 05:15:57;;;;;;;4.50;1.20;;;5.70;99.90;;;;;;4979319;28;20237;-73
2023/01/06 05:18:23;;;;;;;7.00;1.60;;;5.70;99.90;;;;;;4982301;28;20206;-75
2023/01/06 05:20:50;;;;;;;5.77;1.57;;;5.70;99.90;;;;;;4981361;28;20211;-71
2023/01/06 05:23:16;;;;;;;3.20;1.50;;;5.70;99.90;;;;;;4979689;28;20222;-74
2023/01/06 05:25:42;;;;;;;8.77;1.60;;;5.70;99.90;;;;;;4998539;28;20206;-74
2023/01/06 05:28:07;;;;;;;4.13;1.83;;;5.70;99.90;;;;;;4981457;28;20214;-72
2023/01/06 05:30:33;;;;;;;6.47;1.50;;;5.80;99.90;;;;;;4980337;28;20237;-72
2023/01/06 05:32:59;;;;;;;4.37;1.67;;;5.80;99.90;;;;;;4981305;28;20660;-73
2023/01/06 05:35:24;;;;;;;5.83;2.30;;;5.80;99.90;;;;;;4989026;28;20572;-75
2023/01/06 05:37:53;;;;;;;5.77;1.90;;;5.70;99.90;;;;;;4995195;28;20746;-72
2023/01/06 05:40:19;;;;;;;4.50;1.87;;;5.70;99.90;;;;;;4979708;28;20573;-74
2023/01/06 05:42:45;;;;;;;3.97;2.20;;;5.70;99.90;;;;;;4981040;28;20218;-75
2023/01/06 05:45:10;;;;;;;3.53;2.10;;;5.80;99.90;;;;;;4980422;28;20210;-72
2023/01/06 05:47:36;;;;;;;5.87;1.80;;;5.80;99.90;;;;;;4985967;28;20570;-73
2023/01/06 05:50:02;;;;;;;7.33;3.20;;;5.80;99.90;;;;;;4985882;28;20244;-73
2023/01/06 05:52:28;;;;;;;7.17;2.50;;;5.80;99.90;;;;;;4990581;28;20201;-72
2023/01/06 05:54:54;;;;;;;4.27;2.00;;;5.80;99.90;;;;;;4982820;28;20208;-73
2023/01/06 05:57:19;;;;;;;6.37;2.13;;;5.80;99.90;;;;;;5006074;28;20185;-72
2023/01/06 05:59:45;;;;;;;6.07;2.23;;;5.80;99.90;;;;;;5005132;28;20197;-73
2023/01/06 06:02:10;;;;;;;5.07;2.40;;;5.80;99.90;;;;;;4983705;28;20228;-73
2023/01/06 06:04:36;;;;;;;5.53;2.00;;;5.80;99.90;;;;;;4985706;28;20213;-72
2023/01/06 06:07:02;;;;;;;8.43;2.83;;;5.80;99.90;;;;;;4985076;28;20602;-72
2023/01/06 06:09:27;;;;;;;9.03;2.63;;;5.80;99.90;;;;;;4982769;28;20189;-73
2023/01/06 06:11:53;;;;;;;7.37;2.40;;;5.80;99.90;;;;;;4987114;28;20178;-75
2023/01/06 06:14:19;;;;;;;7.83;2.97;;;5.90;99.90;;;;;;4986340;28;20205;-73
2023/01/06 06:16:45;;;;;;;6.73;2.73;;;5.90;99.90;;;;;;4990992;28;20313;-73
2023/01/06 06:19:12;;;;;;;8.17;2.50;;;5.90;99.90;;;;;;4988660;28;20232;-72
2023/01/06 06:21:38;;;;;;;7.47;2.83;;;5.90;99.90;;;;;;4983772;28;20747;-75
2023/01/06 06:24:04;;;;;;;9.77;3.07;;;5.90;99.90;;;;;;4985148;28;20265;-72
2023/01/06 06:26:29;;;;;;;5.23;2.77;;;5.90;99.90;;;;;;4989764;28;20209;-72
2023/01/06 06:28:55;;;;;;;4.77;2.63;;;5.90;99.90;;;;;;4981799;28;20300;-73
2023/01/06 06:31:23;;;;;;;6.60;2.70;;;5.90;99.90;;;;;;4984220;28;20644;-73
2023/01/06 06:33:51;;;;;;;7.37;2.90;;;5.90;99.90;;;;;;4985663;28;20711;-73
2023/01/06 06:36:17;;;;;;;7.47;2.93;;;5.90;99.90;;;;;;4983951;28;20196;-74
2023/01/06 06:38:47;;;;;;;10.03;2.87;;;5.90;99.90;;;;;;4986219;28;20248;-73
2023/01/06 06:41:13;;;;;;;5.60;2.90;;;5.90;99.90;;;;;;4983045;28;20225;-75
2023/01/06 06:43:39;;;;;;;6.33;2.73;;;5.90;99.90;;;;;;4982588;28;20695;-73
2023/01/06 06:46:05;;;;;;;10.70;3.50;;;5.90;99.90;;;;;;4985370;28;20206;-72
2023/01/06 06:48:31;;;;;;;10.07;3.53;;;5.90;99.90;;;;;;5001852;28;20264;-72
2023/01/06 06:50:58;;;;;;;7.20;3.10;;;5.90;99.90;;;;;;5000074;28;20217;-72
2023/01/06 06:53:24;;;;;;;10.20;3.87;;;5.90;99.90;;;;;;4987451;28;20221;-72
2023/01/06 06:55:50;;;;;;;6.80;3.10;;;5.90;99.90;;;;;;4980639;28;20696;-74
2023/01/06 06:58:15;;;;;;;11.47;3.83;;;5.90;99.90;;;;;;4986506;28;20387;-70
2023/01/06 07:00:41;;;;;;;10.57;3.60;;;5.90;99.90;;;;;;4983829;28;20301;-71
2023/01/06 07:03:07;;;;;;;9.73;3.70;;;5.90;99.90;;;;;;4981126;28;20188;-72
2023/01/06 07:05:32;;;;;;;9.87;3.57;;;5.90;99.90;;;;;;4989049;28;20205;-72
2023/01/06 07:07:58;;;;;;;14.37;5.60;;;5.90;99.90;;;;;;4985588;28;20246;-72
2023/01/06 07:10:23;;;;;;;8.70;4.20;;;6.00;99.90;;;;;;4998787;28;20213;-72
2023/01/06 07:12:49;;;;;;;7.43;3.63;;;6.00;99.90;;;;;;4987205;28;20213;-72
2023/01/06 07:15:15;;;;;;;10.27;4.70;;;6.00;99.90;;;;;;4983660;28;20269;-71
2023/01/06 07:17:40;;;;;;;10.40;3.87;;;6.00;99.90;;;;;;4982355;28;20188;-72
2023/01/06 07:20:07;;;;;;;6.97;4.20;;;6.00;99.90;;;;;;4986455;28;20210;-72
2023/01/06 07:22:39;;;;;;;8.93;3.60;;;6.00;99.90;;;;;;4983699;28;20259;-72
2023/01/06 07:25:06;;;;;;;6.87;4.67;;;6.00;99.90;;;;;;4982712;28;20791;-72
2023/01/06 07:27:32;;;;;;;12.40;4.87;;;6.00;99.90;;;;;;4986505;28;20284;-72
2023/01/06 07:29:58;;;;;;;10.27;4.37;;;6.00;99.90;;;;;;4980512;28;20226;-73
2023/01/06 07:32:24;;;;;;;9.40;5.07;;;6.10;99.90;;;;;;4988597;28;20210;-71
2023/01/06 07:34:49;;;;;;;8.37;4.50;;;6.10;99.90;;;;;;4982883;28;20663;-72
2023/01/06 07:37:15;;;;;;;11.53;4.87;;;6.10;99.90;;;;;;4997706;28;20252;-70
2023/01/06 07:39:41;;;;;;;13.23;5.73;;;6.10;99.90;;;;;;4988050;28;20245;-75
2023/01/06 07:42:10;;;;;;;10.77;5.50;;;6.10;99.90;;;;;;4983923;28;20205;-71
2023/01/06 07:44:35;;;;;;;10.30;5.27;;;6.10;99.90;;;;;;4983130;28;20252;-72
2023/01/06 07:47:02;;;;;;;9.97;5.90;;;6.20;99.90;;;;;;5000737;28;20269;-73
2023/01/06 07:49:28;;;;;;;14.90;6.13;;;6.20;99.90;;;;;;4985520;28;20209;-73
2023/01/06 07:51:53;;;;;;;11.83;5.80;;;6.30;99.90;;;;;;4982056;28;20212;-73
2023/01/06 07:54:19;;;;;;;9.37;6.43;;;6.30;99.90;;;;;;5004326;28;20265;-72
2023/01/06 07:56:44;;;;;;;14.13;6.30;;;6.30;99.90;;;;;;4982211;28;20178;-72
2023/01/06 07:59:10;;;;;;;10.37;6.13;;;6.30;99.90;;;;;;4986280;28;20218;-70
2023/01/06 08:01:36;;;;;;;12.00;5.97;;;6.40;99.90;;;;;;4990799;28;20232;-72
2023/01/06 08:04:02;;;;;;;19.00;7.73;;;6.40;99.90;;;;;;4986485;28;20217;-72
2023/01/06 08:06:28;;;;;;;11.37;6.10;;;6.40;99.90;;;;;;4991862;28;20186;-72
2023/01/06 08:08:53;;;;;;;17.73;7.40;;;6.40;99.90;;;;;;4986808;28;20186;-72
2023/01/06 08:11:19;;;;;;;14.50;6.70;;;6.40;99.90;;;;;;4988857;28;20224;-72
2023/01/06 08:13:45;;;;;;;13.70;8.10;;;6.50;99.90;;;;;;4990288;28;20210;-75
2023/01/06 08:16:11;;;;;;;18.70;7.73;;;6.50;99.90;;;;;;5001536;28;20210;-72
2023/01/06 08:18:37;;;;;;;14.43;8.00;;;6.50;99.90;;;;;;4985663;28;20221;-72
2023/01/06 08:21:08;;;;;;;15.77;8.23;;;6.50;99.90;;;;;;4987947;28;20210;-72
2023/01/06 08:23:34;;;;;;;15.03;8.47;;;6.60;99.90;;;;;;4985710;28;20200;-74
2023/01/06 08:26:08;;;;;;;15.53;8.17;;;6.60;99.90;;;;;;4988876;28;20216;-72
2023/01/06 08:28:33;;;;;;;16.70;8.30;;;6.60;99.90;;;;;;4988761;28;20695;-73
2023/01/06 08:30:59;;;;;;;17.13;8.10;;;6.60;99.90;;;;;;4984894;28;20234;-71
2023/01/06 08:33:25;;;;;;;16.87;8.33;;;6.60;99.90;;;;;;5010269;28;20181;-71
2023/01/06 08:36:02;;;;;;;17.70;8.87;;;6.60;99.90;;;;;;4988862;28;20653;-71
2023/01/06 08:38:29;;;;;;;13.17;8.43;;;6.60;99.90;;;;;;4981292;28;20239;-70
2023/01/06 08:40:56;;;;;;;14.90;8.33;;;6.70;99.90;;;;;;4987769;28;20209;-74
2023/01/06 08:43:23;;;;;;;17.53;8.20;;;6.70;99.90;;;;;;4990285;28;20221;-71
2023/01/06 08:45:48;;;;;;;15.30;8.33;;;6.70;99.90;;;;;;4984979;28;20212;-72
2023/01/06 08:48:15;;;;;;;15.77;8.67;;;6.70;99.90;;;;;;4988669;28;20166;-71
2023/01/06 08:50:42;;;;;;;15.00;9.07;;;6.70;99.90;;;;;;4986279;28;20225;-73
2023/01/06 08:53:09;;;;;;;19.17;9.50;;;6.70;99.90;;;;;;4989595;28;20568;-75
2023/01/06 08:55:38;;;;;;;14.93;9.17;;;6.70;99.90;;;;;;4988425;28;20660;-72
2023/01/06 08:58:04;;;;;;;18.67;9.33;;;6.70;99.90;;;;;;4990580;28;20309;-73
2023/01/06 09:00:30;;;;;;;20.03;10.30;;;6.70;99.90;;;;;;4989897;28;20213;-73
2023/01/06 09:02:56;;;;;;;21.17;9.70;;;6.80;99.90;;;;;;4985844;28;20563;-71
2023/01/06 09:05:21;;;;;;;16.33;9.83;;;6.80;99.90;;;;;;4985312;28;20714;-72
2023/01/06 09:07:49;;;;;;;22.20;10.50;;;6.80;99.90;;;;;;4989941;28;20635;-72
2023/01/06 09:10:15;;;;;;;14.50;9.37;;;6.80;99.90;;;;;;4987762;28;20212;-72
2023/01/06 09:12:41;;;;;;;18.70;9.80;;;6.80;99.90;;;;;;4987411;28;20205;-72
2023/01/06 09:15:07;;;;;;;20.60;10.40;;;6.90;99.90;;;;;;4986821;28;20587;-71
2023/01/06 09:17:32;;;;;;;21.77;10.30;;;7.00;99.90;;;;;;4985227;28;20217;-72
2023/01/06 09:19:58;;;;;;;20.47;10.87;;;7.00;99.90;;;;;;4987480;28;20213;-72
2023/01/06 09:22:24;;;;;;;22.30;11.63;;;7.00;99.90;;;;;;4990948;28;20220;-72
2023/01/06 09:24:49;;;;;;;17.87;9.67;;;7.10;99.90;;;;;;4982441;28;20202;-72
2023/01/06 09:27:15;;;;;;;21.63;10.60;;;7.10;99.90;;;;;;4989998;28;20213;-72
2023/01/06 09:29:41;;;;;;;19.67;9.87;;;7.10;99.90;;;;;;4989220;28;20216;-73
2023/01/06 09:32:06;;;;;;;22.40;10.87;;;7.20;99.90;;;;;;4983466;28;20229;-72
2023/01/06 09:34:32;;;;;;;16.27;10.80;;;7.20;99.90;;;;;;5009964;28;20252;-72
2023/01/06 09:36:58;;;;;;;22.87;12.00;;;7.20;99.90;;;;;;4984494;28;20967;-72
2023/01/06 09:39:23;;;;;;;21.33;11.50;;;7.30;99.90;;;;;;4998534;28;20181;-72
2023/01/06 09:42:03;;;;;;;22.30;11.20;;;7.30;99.90;;;;;;4989267;28;20596;-72
2023/01/06 09:44:32;;;;;;;20.57;10.77;;;7.30;99.90;;;;;;5000173;28;20223;-72
2023/01/06 09:47:00;;;;;;;26.13;11.23;;;7.40;99.90;;;;;;4987393;28;20236;-72
2023/01/06 09:49:31;;;;;;;20.07;10.33;;;7.40;99.90;;;;;;4988737;28;20241;-72
2023/01/06 09:52:03;;;;;;;20.03;10.57;;;7.40;99.90;;;;;;4996140;28;20206;-71
2023/01/06 09:54:47;;;;;;;22.13;11.07;;;7.40;99.90;;;;;;4990779;28;20287;-72
2023/01/06 09:57:20;;;;;;;20.83;10.53;;;7.40;99.90;;;;;;4988564;28;20225;-71
2023/01/06 09:59:55;;;;;;;17.47;10.43;;;7.50;99.90;;;;;;4987227;28;20201;-72
2023/01/06 10:02:30;;;;;;;21.57;10.63;;;7.60;99.90;;;;;;4985983;28;20261;-71
2023/01/06 10:04:56;;;;;;;21.10;9.03;;;7.60;99.90;;;;;;4980681;28;20739;-70
2023/01/06 10:08:12;;;;;;;24.30;9.83;;;7.70;99.90;;;;;;4986679;28;20260;-71
2023/01/06 10:10:49;;;;;;;18.43;10.20;;;7.70;99.90;;;;;;4971063;28;20213;-72
2023/01/06 10:13:46;;;;;;;16.13;9.27;;;7.80;99.90;;;;;;4986757;28;20198;-72
2023/01/06 10:16:33;;;;;;;20.73;11.53;;;7.80;99.90;;;;;;5005768;28;20210;-71
2023/01/06 10:19:20;;;;;;;24.50;10.47;;;7.90;99.90;;;;;;4983057;28;20710;-74
2023/01/06 10:21:56;;;;;;;19.20;9.33;;;7.90;99.90;;;;;;4984752;28;20692;-71
2023/01/06 10:24:50;;;;;;;15.53;9.13;;;7.90;99.90;;;;;;4998063;28;20173;-72
2023/01/06 10:27:34;;;;;;;18.97;8.43;;;8.00;99.90;;;;;;4984535;28;20174;-72
2023/01/06 10:30:01;;;;;;;15.60;8.67;;;8.00;99.90;;;;;;4984444;28;20198;-72
2023/01/06 10:32:32;;;;;;;25.83;9.53;;;8.00;99.90;;;;;;4982810;28;20231;-72
2023/01/06 10:34:59;;;;;;;14.30;9.67;;;8.00;99.90;;;;;;5000869;28;20219;-76
2023/01/06 10:37:32;;;;;;;19.13;8.50;;;8.10;99.90;;;;;;4986212;28;20642;-74
2023/01/06 10:40:24;;;;;;;16.67;9.03;;;8.10;99.90;;;;;;4982815;28;20240;-72
2023/01/06 10:43:02;;;;;;;44.73;24.40;;;8.20;99.90;;;;;;4984785;28;20209;-72
2023/01/06 10:45:45;;;;;;;17.63;9.77;;;8.20;99.90;;;;;;4982980;28;20354;-72
2023/01/06 10:48:17;;;;;;;15.07;10.13;;;8.30;99.90;;;;;;4987990;28;20193;-72
2023/01/06 10:50:43;;;;;;;18.83;11.93;;;8.30;99.90;;;;;;5004804;28;20217;-72
2023/01/06 10:53:11;;;;;;;18.13;9.50;;;8.40;99.90;;;;;;4982081;28;20213;-72
2023/01/06 10:55:51;;;;;;;15.33;9.27;;;8.40;99.90;;;;;;4987112;28;20209;-72
2023/01/06 10:58:36;;;;;;;15.73;8.67;;;8.40;99.90;;;;;;4986600;28;20213;-71
2023/01/06 11:01:16;;;;;;;15.73;8.77;;;8.50;99.90;;;;;;4981580;28;20217;-75
2023/01/06 11:03:44;;;;;;;19.00;9.83;;;8.50;99.90;;;;;;4984347;28;20209;-72
2023/01/06 11:06:28;;;;;;;22.23;8.57;;;8.50;99.90;;;;;;4982750;28;20232;-72
2023/01/06 11:08:55;;;;;;;15.73;9.43;;;8.50;99.90;;;;;;4985442;28;20683;-75
2023/01/06 11:11:21;;;;;;;13.00;8.97;;;8.60;99.90;;;;;;4984884;28;20230;-72
2023/01/06 11:13:53;;;;;;;13.63;9.40;;;8.60;99.90;;;;;;4998723;28;20357;-76
2023/01/06 11:16:32;;;;;;;15.90;9.77;;;8.60;99.90;;;;;;4984856;28;20206;-73
2023/01/06 11:19:06;;;;;;;15.90;8.93;;;8.60;99.90;;;;;;4982051;28;20209;-72
2023/01/06 11:21:42;;;;;;;14.07;8.47;;;8.60;99.90;;;;;;4983528;28;20221;-71
2023/01/06 11:24:22;;;;;;;16.77;8.53;;;8.60;99.90;;;;;;4984366;28;20220;-72
2023/01/06 11:26:58;;;;;;;16.13;9.13;;;8.60;99.90;;;;;;4980647;28;20174;-72
2023/01/06 11:29:32;;;;;;;16.90;8.77;;;8.70;99.90;;;;;;4984733;28;20669;-72
2023/01/06 11:32:03;;;;;;;15.37;8.17;;;8.60;99.90;;;;;;4982080;28;20289;-72
2023/01/06 11:34:30;;;;;;;15.00;9.93;;;8.60;99.90;;;;;;4986883;28;20249;-72
2023/01/06 11:36:56;;;;;;;17.07;8.73;;;8.70;99.90;;;;;;4989006;28;20297;-72
2023/01/06 11:39:27;;;;;;;14.10;9.33;;;8.70;99.90;;;;;;4987174;28;20173;-72
2023/01/06 11:41:55;;;;;;;15.60;8.73;;;8.70;99.90;;;;;;4989383;28;20267;-72
2023/01/06 11:44:33;;;;;;;15.73;8.83;;;8.80;99.90;;;;;;4989760;28;21229;-72
2023/01/06 11:47:07;;;;;;;15.07;8.93;;;8.70;99.90;;;;;;4984129;28;20210;-73
2023/01/06 11:49:46;;;;;;;13.77;8.47;;;8.80;99.90;;;;;;4992143;28;20224;-72
2023/01/06 11:52:30;;;;;;;14.93;8.67;;;8.80;99.90;;;;;;4987430;28;20236;-73
2023/01/06 11:55:05;;;;;;;14.07;8.37;;;8.80;99.90;;;;;;4986004;28;20211;-72
2023/01/06 11:57:34;;;;;;;14.23;8.37;;;8.90;99.90;;;;;;4990133;28;20215;-72
2023/01/06 12:00:12;;;;;;;16.00;9.30;;;8.90;99.90;;;;;;4983856;28;20205;-72
2023/01/06 12:03:06;;;;;;;13.33;8.93;;;8.90;99.90;;;;;;4992157;28;20216;-72
2023/01/06 12:05:57;;;;;;;13.17;8.67;;;9.00;99.90;;;;;;4990406;28;20217;-72
2023/01/06 12:08:30;;;;;;;12.57;8.27;;;9.00;99.90;;;;;;4983021;28;20296;-72
2023/01/06 12:11:13;;;;;;;15.73;8.07;;;9.00;99.90;;;;;;4987337;28;20261;-72
2023/01/06 12:13:39;;;;;;;12.67;7.30;;;9.00;99.90;;;;;;4987813;28;20198;-73
2023/01/06 12:16:14;;;;;;;49.17;30.03;;;9.10;99.90;;;;;;4989957;28;20206;-75
2023/01/06 12:18:41;;;;;;;27.93;16.27;;;9.20;99.90;;;;;;4984977;28;20209;-72
2023/01/06 12:21:14;;;;;;;36.27;20.60;;;9.30;99.90;;;;;;4985883;28;20768;-75
2023/01/06 12:23:44;;;;;;;16.77;8.93;;;9.30;99.90;;;;;;4991715;28;20264;-73
2023/01/06 12:26:22;;;;;;;11.53;7.73;;;9.30;99.90;;;;;;4987123;28;20289;-72
2023/01/06 12:28:51;;;;;;;9.10;6.47;;;9.30;99.90;;;;;;4990282;28;20201;-72
2023/01/06 12:31:46;;;;;;;7.93;6.13;;;9.30;99.90;;;;;;4988373;28;20216;-72
2023/01/06 12:34:36;;;;;;;12.53;6.93;;;9.30;99.90;;;;;;4984211;28;20704;-72
2023/01/06 12:37:43;;;;;;;10.33;6.00;;;9.40;99.90;;;;;;4988646;28;20206;-72
2023/01/06 12:40:23;;;;;;;11.87;6.30;;;9.40;99.90;;;;;;4984801;28;20594;-74
2023/01/06 12:43:13;;;;;;;9.83;6.73;;;9.50;99.90;;;;;;4987877;28;20633;-74
2023/01/06 12:45:42;;;;;;;8.40;5.20;;;9.50;99.90;;;;;;4985084;28;20213;-71
2023/01/06 12:48:33;;;;;;;7.30;5.00;;;9.50;99.90;;;;;;4984631;28;20173;-70
2023/01/06 12:51:24;;;;;;;11.37;5.10;;;9.50;99.90;;;;;;4987846;28;20249;-72
2023/01/06 12:54:01;;;;;;;8.90;5.07;;;9.60;99.90;;;;;;4985708;28;20206;-72
2023/01/06 12:56:38;;;;;;;7.90;4.50;;;9.60;99.90;;;;;;4984900;28;20205;-72
2023/01/06 12:59:44;;;;;;;8.07;4.63;;;9.60;99.90;;;;;;4987937;28;20214;-71
2023/01/06 13:02:30;;;;;;;49.00;30.17;;;9.70;99.90;;;;;;4986845;28;20241;-71
2023/01/06 13:05:20;;;;;;;23.70;14.60;;;9.70;99.90;;;;;;4986729;28;20206;-71
2023/01/06 13:08:16;;;;;;;10.40;4.87;;;9.80;99.90;;;;;;4984546;28;20716;-74
2023/01/06 13:10:47;;;;;;;7.87;5.60;;;9.80;99.90;;;;;;4988639;28;20634;-72
2023/01/06 13:13:45;;;;;;;11.40;7.33;;;9.80;99.90;;;;;;4987324;28;20236;-73
2023/01/06 13:16:35;;;;;;;5.47;3.57;;;9.90;99.90;;;;;;4986620;28;20237;-70